DTTX/SFA METAR and TAF weather

Enter ICAO airport designator
Station Type Date Time Source
DTTX METAR 2022/12/05 15:00 UTC NOAA

DTTX 051500Z 17006KT 9999 FEW030 21/08 Q1019


Station Type Date Time Source
DTTX Decoded METAR 2022/12/05 15:00 UTC NOAA

Sfax El-Maou, Tunisia (DTTX) 34-43N 010-41E 23M
Dec 05, 2022 - 10:00 AM EST / 2022.12.05 1500 UTC
Wind: from the S (170 degrees) at 7 MPH (6 KT):0
Visibility: greater than 7 mile(s):0
Sky conditions: mostly clear
Temperature: 69 F (21 C)
Dew Point: 46 F (8 C)
Relative Humidity: 43%
Pressure (altimeter): 30.09 in. Hg (1019 hPa)
ob: DTTX 051500Z 17006KT 9999 FEW030 21/08 Q1019
cycle: 15

Station Type Date Time Source
DTTX TAF 2022/12/05 12:35 UTC NOAA

TAF DTTX 051100Z 0512/0612 19005KT 9999 FEW030 PROB30
TEMPO 0600/0607 3000 BR PROB30
TEMPO 0609/0612 22015KT

Example: see airport list